sensor_id;sensor_type;location;lat;lon;timestamp;temperature;humidity
33815;DHT22;20121;51.910;8.406;2024-03-08T00:01:06;2.50;99.90
33815;DHT22;20121;51.910;8.406;2024-03-08T00:03:32;2.50;99.90
33815;DHT22;20121;51.910;8.406;2024-03-08T00:05:58;2.50;99.90
33815;DHT22;20121;51.910;8.406;2024-03-08T00:08:23;2.50;99.90
33815;DHT22;20121;51.910;8.406;2024-03-08T00:10:50;2.50;99.90
33815;DHT22;20121;51.910;8.406;2024-03-08T00:13:16;2.50;99.90
33815;DHT22;20121;51.910;8.406;2024-03-08T00:15:41;2.40;99.90
33815;DHT22;20121;51.910;8.406;2024-03-08T00:18:07;2.40;99.90
33815;DHT22;20121;51.910;8.406;2024-03-08T00:20:32;2.40;99.90
33815;DHT22;20121;51.910;8.406;2024-03-08T00:22:58;2.70;99.90
33815;DHT22;20121;51.910;8.406;2024-03-08T00:25:24;2.40;99.90
33815;DHT22;20121;51.910;8.406;2024-03-08T00:27:50;2.50;99.90
33815;DHT22;20121;51.910;8.406;2024-03-08T00:30:16;2.40;99.90
33815;DHT22;20121;51.910;8.406;2024-03-08T00:32:42;2.40;99.90
33815;DHT22;20121;51.910;8.406;2024-03-08T00:35:08;2.40;99.90
33815;DHT22;20121;51.910;8.406;2024-03-08T00:37:33;2.30;99.90
33815;DHT22;20121;51.910;8.406;2024-03-08T00:40:00;2.30;99.90
33815;DHT22;20121;51.910;8.406;2024-03-08T00:42:25;2.30;99.90
33815;DHT22;20121;51.910;8.406;2024-03-08T00:44:51;2.30;99.90
33815;DHT22;20121;51.910;8.406;2024-03-08T00:47:17;2.30;99.90
33815;DHT22;20121;51.910;8.406;2024-03-08T00:49:43;2.30;99.90
33815;DHT22;20121;51.910;8.406;2024-03-08T00:52:08;2.30;99.90
33815;DHT22;20121;51.910;8.406;2024-03-08T00:54:35;2.30;99.90
33815;DHT22;20121;51.910;8.406;2024-03-08T00:57:03;2.20;99.90
33815;DHT22;20121;51.910;8.406;2024-03-08T00:59:30;2.20;99.90
33815;DHT22;20121;51.910;8.406;2024-03-08T01:01:58;2.20;99.90
33815;DHT22;20121;51.910;8.406;2024-03-08T01:04:25;2.20;99.90
33815;DHT22;20121;51.910;8.406;2024-03-08T01:06:53;2.20;99.90
33815;DHT22;20121;51.910;8.406;2024-03-08T01:09:18;2.20;99.90
33815;DHT22;20121;51.910;8.406;2024-03-08T01:11:45;2.50;99.90
33815;DHT22;20121;51.910;8.406;2024-03-08T01:14:11;2.10;99.90
33815;DHT22;20121;51.910;8.406;2024-03-08T01:16:36;2.10;99.90
33815;DHT22;20121;51.910;8.406;2024-03-08T01:19:02;2.10;99.90
33815;DHT22;20121;51.910;8.406;2024-03-08T01:21:28;2.10;99.90
33815;DHT22;20121;51.910;8.406;2024-03-08T01:23:54;2.10;99.90
33815;DHT22;20121;51.910;8.406;2024-03-08T01:26:20;2.10;99.90
33815;DHT22;20121;51.910;8.406;2024-03-08T01:28:45;2.10;99.90
33815;DHT22;20121;51.910;8.406;2024-03-08T01:31:11;2.10;99.90
33815;DHT22;20121;51.910;8.406;2024-03-08T01:33:37;2.10;99.90
33815;DHT22;20121;51.910;8.406;2024-03-08T01:36:03;2.10;99.90
33815;DHT22;20121;51.910;8.406;2024-03-08T01:38:29;2.10;99.90
33815;DHT22;20121;51.910;8.406;2024-03-08T01:40:54;2.10;99.90
33815;DHT22;20121;51.910;8.406;2024-03-08T01:43:26;2.10;99.90
33815;DHT22;20121;51.910;8.406;2024-03-08T01:45:58;2.30;99.90
33815;DHT22;20121;51.910;8.406;2024-03-08T01:48:30;2.00;99.90
33815;DHT22;20121;51.910;8.406;2024-03-08T01:50:57;2.20;99.90
33815;DHT22;20121;51.910;8.406;2024-03-08T01:53:24;2.00;99.90
33815;DHT22;20121;51.910;8.406;2024-03-08T01:55:54;1.90;99.90
33815;DHT22;20121;51.910;8.406;2024-03-08T01:58:21;2.00;99.90
33815;DHT22;20121;51.910;8.406;2024-03-08T02:00:49;2.00;99.90
33815;DHT22;20121;51.910;8.406;2024-03-08T02:03:16;2.00;99.90
33815;DHT22;20121;51.910;8.406;2024-03-08T02:05:42;2.00;99.90
33815;DHT22;20121;51.910;8.406;2024-03-08T02:08:09;1.90;99.90
33815;DHT22;20121;51.910;8.406;2024-03-08T02:10:39;2.10;99.90
33815;DHT22;20121;51.910;8.406;2024-03-08T02:13:05;2.30;99.90
33815;DHT22;20121;51.910;8.406;2024-03-08T02:15:59;1.90;99.90
33815;DHT22;20121;51.910;8.406;2024-03-08T02:18:26;1.90;99.90
33815;DHT22;20121;51.910;8.406;2024-03-08T02:20:52;1.90;99.90
33815;DHT22;20121;51.910;8.406;2024-03-08T02:23:21;1.90;99.90
33815;DHT22;20121;51.910;8.406;2024-03-08T02:25:48;1.90;99.90
33815;DHT22;20121;51.910;8.406;2024-03-08T02:28:14;1.80;99.90
33815;DHT22;20121;51.910;8.406;2024-03-08T02:30:40;1.80;99.90
33815;DHT22;20121;51.910;8.406;2024-03-08T02:33:06;1.80;99.90
33815;DHT22;20121;51.910;8.406;2024-03-08T02:35:32;1.80;99.90
33815;DHT22;20121;51.910;8.406;2024-03-08T02:37:59;1.60;99.90
33815;DHT22;20121;51.910;8.406;2024-03-08T02:40:24;1.80;99.90
33815;DHT22;20121;51.910;8.406;2024-03-08T02:42:50;1.80;99.90
33815;DHT22;20121;51.910;8.406;2024-03-08T02:45:15;1.80;99.90
33815;DHT22;20121;51.910;8.406;2024-03-08T02:47:41;1.80;99.90
33815;DHT22;20121;51.910;8.406;2024-03-08T02:50:07;1.80;99.90
33815;DHT22;20121;51.910;8.406;2024-03-08T02:52:34;1.80;99.90
33815;DHT22;20121;51.910;8.406;2024-03-08T02:55:03;1.80;99.90
33815;DHT22;20121;51.910;8.406;2024-03-08T02:57:31;1.80;99.90
33815;DHT22;20121;51.910;8.406;2024-03-08T02:59:57;1.60;99.90
33815;DHT22;20121;51.910;8.406;2024-03-08T03:02:25;1.70;99.90
33815;DHT22;20121;51.910;8.406;2024-03-08T03:04:52;1.70;99.90
33815;DHT22;20121;51.910;8.406;2024-03-08T03:07:18;1.90;99.90
33815;DHT22;20121;51.910;8.406;2024-03-08T03:09:43;1.60;99.90
33815;DHT22;20121;51.910;8.406;2024-03-08T03:12:09;1.60;99.90
33815;DHT22;20121;51.910;8.406;2024-03-08T03:14:37;1.60;99.90
33815;DHT22;20121;51.910;8.406;2024-03-08T03:17:06;1.60;99.90
33815;DHT22;20121;51.910;8.406;2024-03-08T03:19:31;1.60;99.90
33815;DHT22;20121;51.910;8.406;2024-03-08T03:21:57;1.60;99.90
33815;DHT22;20121;51.910;8.406;2024-03-08T03:24:23;1.60;99.90
33815;DHT22;20121;51.910;8.406;2024-03-08T03:26:49;1.90;99.90
33815;DHT22;20121;51.910;8.406;2024-03-08T03:29:15;1.70;99.90
33815;DHT22;20121;51.910;8.406;2024-03-08T03:31:42;1.60;99.90
33815;DHT22;20121;51.910;8.406;2024-03-08T03:34:12;1.50;99.90
33815;DHT22;20121;51.910;8.406;2024-03-08T03:36:38;1.60;99.90
33815;DHT22;20121;51.910;8.406;2024-03-08T03:39:11;1.60;99.90
33815;DHT22;20121;51.910;8.406;2024-03-08T03:41:41;1.70;99.90
33815;DHT22;20121;51.910;8.406;2024-03-08T03:44:07;1.20;99.90
33815;DHT22;20121;51.910;8.406;2024-03-08T03:46:33;1.50;99.90
33815;DHT22;20121;51.910;8.406;2024-03-08T03:48:59;1.60;99.90
33815;DHT22;20121;51.910;8.406;2024-03-08T03:51:24;1.60;99.90
33815;DHT22;20121;51.910;8.406;2024-03-08T03:53:51;1.10;99.90
33815;DHT22;20121;51.910;8.406;2024-03-08T03:56:16;1.50;99.90
33815;DHT22;20121;51.910;8.406;2024-03-08T03:58:42;1.50;99.90
33815;DHT22;20121;51.910;8.406;2024-03-08T04:01:08;1.50;99.90
33815;DHT22;20121;51.910;8.406;2024-03-08T04:03:35;1.30;99.90
33815;DHT22;20121;51.910;8.406;2024-03-08T04:06:01;1.50;99.90
33815;DHT22;20121;51.910;8.406;2024-03-08T04:08:27;1.40;99.90
33815;DHT22;20121;51.910;8.406;2024-03-08T04:10:53;1.50;99.90
33815;DHT22;20121;51.910;8.406;2024-03-08T04:13:19;1.40;99.90
33815;DHT22;20121;51.910;8.406;2024-03-08T04:15:46;1.70;99.90
33815;DHT22;20121;51.910;8.406;2024-03-08T04:18:13;1.50;99.90
33815;DHT22;20121;51.910;8.406;2024-03-08T04:20:39;2.10;99.90
33815;DHT22;20121;51.910;8.406;2024-03-08T04:23:05;1.40;99.90
33815;DHT22;20121;51.910;8.406;2024-03-08T04:25:31;1.40;99.90
33815;DHT22;20121;51.910;8.406;2024-03-08T04:27:57;1.60;99.90
33815;DHT22;20121;51.910;8.406;2024-03-08T04:32:49;1.40;99.90
33815;DHT22;20121;51.910;8.406;2024-03-08T04:35:15;1.40;99.90
33815;DHT22;20121;51.910;8.406;2024-03-08T04:40:07;1.40;99.90
33815;DHT22;20121;51.910;8.406;2024-03-08T04:42:33;1.40;99.90
33815;DHT22;20121;51.910;8.406;2024-03-08T04:44:59;1.40;99.90
33815;DHT22;20121;51.910;8.406;2024-03-08T04:47:25;1.10;99.90
33815;DHT22;20121;51.910;8.406;2024-03-08T04:49:51;1.30;99.90
33815;DHT22;20121;51.910;8.406;2024-03-08T04:52:17;1.30;99.90
33815;DHT22;20121;51.910;8.406;2024-03-08T04:54:43;1.20;99.90
33815;DHT22;20121;51.910;8.406;2024-03-08T04:57:10;1.30;99.90
33815;DHT22;20121;51.910;8.406;2024-03-08T04:59:36;1.50;99.90
33815;DHT22;20121;51.910;8.406;2024-03-08T05:02:02;1.20;99.90
33815;DHT22;20121;51.910;8.406;2024-03-08T05:04:28;1.20;99.90
33815;DHT22;20121;51.910;8.406;2024-03-08T05:06:54;1.20;99.90
33815;DHT22;20121;51.910;8.406;2024-03-08T05:09:20;1.10;99.90
33815;DHT22;20121;51.910;8.406;2024-03-08T05:11:46;1.20;99.90
33815;DHT22;20121;51.910;8.406;2024-03-08T05:14:13;1.30;99.90
33815;DHT22;20121;51.910;8.406;2024-03-08T05:16:48;1.30;99.90
33815;DHT22;20121;51.910;8.406;2024-03-08T05:19:18;0.80;99.90
33815;DHT22;20121;51.910;8.406;2024-03-08T05:21:47;1.20;99.90
33815;DHT22;20121;51.910;8.406;2024-03-08T05:24:13;1.00;99.90
33815;DHT22;20121;51.910;8.406;2024-03-08T05:26:40;1.10;99.90
33815;DHT22;20121;51.910;8.406;2024-03-08T05:29:05;1.70;99.90
33815;DHT22;20121;51.910;8.406;2024-03-08T05:31:43;0.90;99.90
33815;DHT22;20121;51.910;8.406;2024-03-08T05:36:42;0.70;99.90
33815;DHT22;20121;51.910;8.406;2024-03-08T05:39:19;1.00;99.90
33815;DHT22;20121;51.910;8.406;2024-03-08T05:41:46;0.70;99.90
33815;DHT22;20121;51.910;8.406;2024-03-08T05:44:12;1.10;99.90
33815;DHT22;20121;51.910;8.406;2024-03-08T05:46:38;0.60;99.90
33815;DHT22;20121;51.910;8.406;2024-03-08T05:49:05;0.70;99.90
33815;DHT22;20121;51.910;8.406;2024-03-08T05:51:35;1.30;99.90
33815;DHT22;20121;51.910;8.406;2024-03-08T05:54:05;1.10;99.90
33815;DHT22;20121;51.910;8.406;2024-03-08T05:56:34;0.90;99.90
33815;DHT22;20121;51.910;8.406;2024-03-08T05:59:00;1.20;99.90
33815;DHT22;20121;51.910;8.406;2024-03-08T06:01:26;0.90;99.90
33815;DHT22;20121;51.910;8.406;2024-03-08T06:03:52;1.00;99.90
33815;DHT22;20121;51.910;8.406;2024-03-08T06:06:21;1.00;99.90
33815;DHT22;20121;51.910;8.406;2024-03-08T06:08:48;1.00;99.90
33815;DHT22;20121;51.910;8.406;2024-03-08T06:11:15;0.80;99.90
33815;DHT22;20121;51.910;8.406;2024-03-08T06:13:40;1.00;99.90
33815;DHT22;20121;51.910;8.406;2024-03-08T06:16:06;0.70;99.90
33815;DHT22;20121;51.910;8.406;2024-03-08T06:18:36;1.00;99.90
33815;DHT22;20121;51.910;8.406;2024-03-08T06:21:06;1.00;99.90
33815;DHT22;20121;51.910;8.406;2024-03-08T06:23:35;0.80;99.90
33815;DHT22;20121;51.910;8.406;2024-03-08T06:26:04;0.80;99.90
33815;DHT22;20121;51.910;8.406;2024-03-08T06:28:30;0.80;99.90
33815;DHT22;20121;51.910;8.406;2024-03-08T06:31:01;0.90;99.90
33815;DHT22;20121;51.910;8.406;2024-03-08T06:33:27;1.00;99.90
33815;DHT22;20121;51.910;8.406;2024-03-08T06:35:54;1.40;99.90
33815;DHT22;20121;51.910;8.406;2024-03-08T06:38:23;1.00;99.90
33815;DHT22;20121;51.910;8.406;2024-03-08T06:40:48;0.90;99.90
33815;DHT22;20121;51.910;8.406;2024-03-08T06:43:14;1.20;99.90
33815;DHT22;20121;51.910;8.406;2024-03-08T06:45:42;1.10;99.90
33815;DHT22;20121;51.910;8.406;2024-03-08T06:48:17;1.10;99.90
33815;DHT22;20121;51.910;8.406;2024-03-08T06:50:46;1.40;99.90
33815;DHT22;20121;51.910;8.406;2024-03-08T06:53:13;1.40;99.90
33815;DHT22;20121;51.910;8.406;2024-03-08T06:55:39;1.40;99.90
33815;DHT22;20121;51.910;8.406;2024-03-08T06:58:05;1.40;99.90
33815;DHT22;20121;51.910;8.406;2024-03-08T07:00:32;1.50;99.90
33815;DHT22;20121;51.910;8.406;2024-03-08T07:02:58;1.30;99.90
33815;DHT22;20121;51.910;8.406;2024-03-08T07:05:27;1.60;99.90
33815;DHT22;20121;51.910;8.406;2024-03-08T07:07:53;1.60;99.90
33815;DHT22;20121;51.910;8.406;2024-03-08T07:10:20;1.60;99.90
33815;DHT22;20121;51.910;8.406;2024-03-08T07:12:46;1.70;99.90
33815;DHT22;20121;51.910;8.406;2024-03-08T07:15:12;1.70;99.90
33815;DHT22;20121;51.910;8.406;2024-03-08T07:17:41;1.70;99.90
33815;DHT22;20121;51.910;8.406;2024-03-08T07:20:10;1.50;99.90
33815;DHT22;20121;51.910;8.406;2024-03-08T07:22:38;1.90;99.90
33815;DHT22;20121;51.910;8.406;2024-03-08T07:25:08;2.00;99.90
33815;DHT22;20121;51.910;8.406;2024-03-08T07:27:34;2.00;99.90
33815;DHT22;20121;51.910;8.406;2024-03-08T07:30:05;2.20;99.90
33815;DHT22;20121;51.910;8.406;2024-03-08T07:32:30;2.30;99.90
33815;DHT22;20121;51.910;8.406;2024-03-08T07:34:57;2.30;99.90
33815;DHT22;20121;51.910;8.406;2024-03-08T07:37:24;2.40;99.90
33815;DHT22;20121;51.910;8.406;2024-03-08T07:39:49;2.60;99.90
33815;DHT22;20121;51.910;8.406;2024-03-08T07:42:15;2.60;99.90
33815;DHT22;20121;51.910;8.406;2024-03-08T07:44:42;2.70;99.90
33815;DHT22;20121;51.910;8.406;2024-03-08T07:47:08;2.90;99.90
33815;DHT22;20121;51.910;8.406;2024-03-08T07:49:35;3.00;99.90
33815;DHT22;20121;51.910;8.406;2024-03-08T07:52:03;3.20;99.90
33815;DHT22;20121;51.910;8.406;2024-03-08T07:54:30;3.10;99.90
33815;DHT22;20121;51.910;8.406;2024-03-08T07:56:56;3.30;99.90
33815;DHT22;20121;51.910;8.406;2024-03-08T07:59:21;3.40;99.90
33815;DHT22;20121;51.910;8.406;2024-03-08T08:01:47;4.00;99.90
33815;DHT22;20121;51.910;8.406;2024-03-08T08:04:13;3.60;99.90
33815;DHT22;20121;51.910;8.406;2024-03-08T08:06:40;3.70;99.90
33815;DHT22;20121;51.910;8.406;2024-03-08T08:09:09;3.90;99.90
33815;DHT22;20121;51.910;8.406;2024-03-08T08:11:41;4.30;99.90
33815;DHT22;20121;51.910;8.406;2024-03-08T08:14:10;3.50;99.90
33815;DHT22;20121;51.910;8.406;2024-03-08T08:16:36;4.00;99.90
33815;DHT22;20121;51.910;8.406;2024-03-08T08:19:06;4.20;99.90
33815;DHT22;20121;51.910;8.406;2024-03-08T08:21:34;4.20;99.90
33815;DHT22;20121;51.910;8.406;2024-03-08T08:24:02;4.70;99.90
33815;DHT22;20121;51.910;8.406;2024-03-08T08:28:54;4.70;99.90
33815;DHT22;20121;51.910;8.406;2024-03-08T08:31:20;4.60;99.90
33815;DHT22;20121;51.910;8.406;2024-03-08T08:33:45;4.70;99.90
33815;DHT22;20121;51.910;8.406;2024-03-08T08:36:13;4.50;99.90
33815;DHT22;20121;51.910;8.406;2024-03-08T08:38:39;4.80;99.90
33815;DHT22;20121;51.910;8.406;2024-03-08T08:41:05;5.30;99.90
33815;DHT22;20121;51.910;8.406;2024-03-08T08:43:31;4.80;99.90
33815;DHT22;20121;51.910;8.406;2024-03-08T08:45:59;5.30;99.90
33815;DHT22;20121;51.910;8.406;2024-03-08T08:48:24;5.40;99.90
33815;DHT22;20121;51.910;8.406;2024-03-08T08:50:50;5.30;99.90
33815;DHT22;20121;51.910;8.406;2024-03-08T08:53:17;5.80;99.90
33815;DHT22;20121;51.910;8.406;2024-03-08T08:55:44;5.40;99.90
33815;DHT22;20121;51.910;8.406;2024-03-08T08:58:11;5.30;99.90
33815;DHT22;20121;51.910;8.406;2024-03-08T09:00:36;5.70;99.90
33815;DHT22;20121;51.910;8.406;2024-03-08T09:03:02;5.60;99.90
33815;DHT22;20121;51.910;8.406;2024-03-08T09:05:28;5.80;99.90
33815;DHT22;20121;51.910;8.406;2024-03-08T09:07:54;5.90;99.90
33815;DHT22;20121;51.910;8.406;2024-03-08T09:10:21;6.00;99.90
33815;DHT22;20121;51.910;8.406;2024-03-08T09:12:47;6.40;99.90
33815;DHT22;20121;51.910;8.406;2024-03-08T09:15:12;5.90;99.90
33815;DHT22;20121;51.910;8.406;2024-03-08T09:17:38;6.60;99.90
33815;DHT22;20121;51.910;8.406;2024-03-08T09:20:07;6.30;99.90
33815;DHT22;20121;51.910;8.406;2024-03-08T09:22:34;6.40;99.90
33815;DHT22;20121;51.910;8.406;2024-03-08T09:25:00;6.50;99.90
33815;DHT22;20121;51.910;8.406;2024-03-08T09:27:26;6.60;99.90
33815;DHT22;20121;51.910;8.406;2024-03-08T09:29:52;6.70;99.90
33815;DHT22;20121;51.910;8.406;2024-03-08T09:32:18;6.80;99.90
33815;DHT22;20121;51.910;8.406;2024-03-08T09:34:43;6.50;99.90
33815;DHT22;20121;51.910;8.406;2024-03-08T09:37:09;6.90;99.90
33815;DHT22;20121;51.910;8.406;2024-03-08T09:39:35;7.00;99.90
33815;DHT22;20121;51.910;8.406;2024-03-08T09:42:01;7.00;99.90
33815;DHT22;20121;51.910;8.406;2024-03-08T09:44:27;7.20;99.90
33815;DHT22;20121;51.910;8.406;2024-03-08T09:46:55;7.20;99.90
33815;DHT22;20121;51.910;8.406;2024-03-08T09:49:20;7.30;99.90
33815;DHT22;20121;51.910;8.406;2024-03-08T09:51:46;7.40;99.90
33815;DHT22;20121;51.910;8.406;2024-03-08T09:54:12;7.40;99.90
33815;DHT22;20121;51.910;8.406;2024-03-08T09:56:39;7.50;99.90
33815;DHT22;20121;51.910;8.406;2024-03-08T09:59:09;7.60;99.90
33815;DHT22;20121;51.910;8.406;2024-03-08T10:01:59;7.70;99.90
33815;DHT22;20121;51.910;8.406;2024-03-08T10:04:25;7.70;99.90
33815;DHT22;20121;51.910;8.406;2024-03-08T10:07:00;7.80;99.90
33815;DHT22;20121;51.910;8.406;2024-03-08T10:09:26;8.00;99.90
33815;DHT22;20121;51.910;8.406;2024-03-08T10:11:59;8.00;99.90
33815;DHT22;20121;51.910;8.406;2024-03-08T10:14:25;8.10;99.90
33815;DHT22;20121;51.910;8.406;2024-03-08T10:16:52;8.10;99.90
33815;DHT22;20121;51.910;8.406;2024-03-08T10:19:17;8.20;99.50
33815;DHT22;20121;51.910;8.406;2024-03-08T10:21:53;8.20;99.80
33815;DHT22;20121;51.910;8.406;2024-03-08T10:24:24;8.30;99.90
33815;DHT22;20121;51.910;8.406;2024-03-08T10:26:58;8.60;99.90
33815;DHT22;20121;51.910;8.406;2024-03-08T10:29:24;8.40;99.60
33815;DHT22;20121;51.910;8.406;2024-03-08T10:31:49;8.40;99.60
33815;DHT22;20121;51.910;8.406;2024-03-08T10:34:16;8.40;99.50
33815;DHT22;20121;51.910;8.406;2024-03-08T10:36:41;8.50;99.70
33815;DHT22;20121;51.910;8.406;2024-03-08T10:39:22;8.60;99.10
33815;DHT22;20121;51.910;8.406;2024-03-08T10:41:58;8.60;99.00
33815;DHT22;20121;51.910;8.406;2024-03-08T10:52:09;8.80;98.30
33815;DHT22;20121;51.910;8.406;2024-03-08T10:54:37;8.90;98.40
33815;DHT22;20121;51.910;8.406;2024-03-08T10:57:06;8.90;98.80
33815;DHT22;20121;51.910;8.406;2024-03-08T10:59:34;9.10;98.30
33815;DHT22;20121;51.910;8.406;2024-03-08T11:02:01;9.10;98.60
33815;DHT22;20121;51.910;8.406;2024-03-08T11:04:26;9.60;99.90
33815;DHT22;20121;51.910;8.406;2024-03-08T11:07:03;9.20;97.70
33815;DHT22;20121;51.910;8.406;2024-03-08T11:09:40;9.30;97.80
33815;DHT22;20121;51.910;8.406;2024-03-08T11:12:24;9.40;97.70
33815;DHT22;20121;51.910;8.406;2024-03-08T11:14:55;9.40;97.50
33815;DHT22;20121;51.910;8.406;2024-03-08T11:18:06;9.30;98.80
33815;DHT22;20121;51.910;8.406;2024-03-08T11:20:12;9.50;99.90
33815;DHT22;20121;51.910;8.406;2024-03-08T11:22:52;9.50;96.50
33815;DHT22;20121;51.910;8.406;2024-03-08T11:25:37;9.50;96.80
33815;DHT22;20121;51.910;8.406;2024-03-08T11:28:19;9.50;96.40
33815;DHT22;20121;51.910;8.406;2024-03-08T11:33:28;9.50;96.50
33815;DHT22;20121;51.910;8.406;2024-03-08T11:38:29;9.50;99.90
33815;DHT22;20121;51.910;8.406;2024-03-08T11:40:57;10.30;96.30
33815;DHT22;20121;51.910;8.406;2024-03-08T11:43:22;9.70;99.90
33815;DHT22;20121;51.910;8.406;2024-03-08T11:45:48;9.50;95.60
33815;DHT22;20121;51.910;8.406;2024-03-08T11:48:14;9.50;99.90
33815;DHT22;20121;51.910;8.406;2024-03-08T11:50:39;9.70;99.90
33815;DHT22;20121;51.910;8.406;2024-03-08T11:53:05;9.90;99.90
33815;DHT22;20121;51.910;8.406;2024-03-08T11:55:34;9.60;96.00
33815;DHT22;20121;51.910;8.406;2024-03-08T11:58:05;9.50;99.90
33815;DHT22;20121;51.910;8.406;2024-03-08T12:00:33;9.60;99.90
33815;DHT22;20121;51.910;8.406;2024-03-08T12:03:07;9.40;99.90
33815;DHT22;20121;51.910;8.406;2024-03-08T12:05:33;9.70;96.60
33815;DHT22;20121;51.910;8.406;2024-03-08T12:08:03;9.70;96.40
33815;DHT22;20121;51.910;8.406;2024-03-08T12:10:30;9.80;96.20
33815;DHT22;20121;51.910;8.406;2024-03-08T12:12:58;9.90;96.20
33815;DHT22;20121;51.910;8.406;2024-03-08T12:15:28;10.00;95.50
33815;DHT22;20121;51.910;8.406;2024-03-08T12:17:55;10.50;99.90
33815;DHT22;20121;51.910;8.406;2024-03-08T12:20:26;10.10;95.60
33815;DHT22;20121;51.910;8.406;2024-03-08T12:22:53;10.10;95.30
33815;DHT22;20121;51.910;8.406;2024-03-08T12:25:19;10.20;95.10
33815;DHT22;20121;51.910;8.406;2024-03-08T12:27:46;10.20;99.90
33815;DHT22;20121;51.910;8.406;2024-03-08T12:30:25;10.20;99.90
33815;DHT22;20121;51.910;8.406;2024-03-08T12:32:56;10.20;99.90
33815;DHT22;20121;51.910;8.406;2024-03-08T12:35:29;10.30;94.40
33815;DHT22;20121;51.910;8.406;2024-03-08T12:37:56;10.30;94.30
33815;DHT22;20121;51.910;8.406;2024-03-08T12:40:26;10.20;94.00
33815;DHT22;20121;51.910;8.406;2024-03-08T12:42:53;10.20;94.00
33815;DHT22;20121;51.910;8.406;2024-03-08T12:45:18;10.20;94.40
33815;DHT22;20121;51.910;8.406;2024-03-08T12:47:44;10.20;94.20
33815;DHT22;20121;51.910;8.406;2024-03-08T12:50:10;10.20;94.50
33815;DHT22;20121;51.910;8.406;2024-03-08T12:52:36;10.50;99.90
33815;DHT22;20121;51.910;8.406;2024-03-08T12:55:02;10.50;99.90
33815;DHT22;20121;51.910;8.406;2024-03-08T12:57:28;10.40;94.70
33815;DHT22;20121;51.910;8.406;2024-03-08T12:59:54;10.50;94.80
33815;DHT22;20121;51.910;8.406;2024-03-08T13:02:20;10.50;95.10
33815;DHT22;20121;51.910;8.406;2024-03-08T13:04:46;10.50;94.30
33815;DHT22;20121;51.910;8.406;2024-03-08T13:07:21;10.30;99.90
33815;DHT22;20121;51.910;8.406;2024-03-08T13:09:47;10.40;99.90
33815;DHT22;20121;51.910;8.406;2024-03-08T13:12:12;10.20;99.90
33815;DHT22;20121;51.910;8.406;2024-03-08T13:14:40;10.30;94.10
33815;DHT22;20121;51.910;8.406;2024-03-08T13:17:06;10.30;93.90
33815;DHT22;20121;51.910;8.406;2024-03-08T13:19:36;10.20;93.90
33815;DHT22;20121;51.910;8.406;2024-03-08T13:22:03;10.20;94.30
33815;DHT22;20121;51.910;8.406;2024-03-08T13:24:32;10.10;94.60
33815;DHT22;20121;51.910;8.406;2024-03-08T13:26:59;9.90;99.90
33815;DHT22;20121;51.910;8.406;2024-03-08T13:29:25;10.10;93.80
33815;DHT22;20121;51.910;8.406;2024-03-08T13:31:51;10.10;94.30
33815;DHT22;20121;51.910;8.406;2024-03-08T13:34:18;10.10;94.40
33815;DHT22;20121;51.910;8.406;2024-03-08T13:36:45;10.10;94.10
33815;DHT22;20121;51.910;8.406;2024-03-08T13:39:12;10.10;93.50
33815;DHT22;20121;51.910;8.406;2024-03-08T13:41:46;10.00;99.90
33815;DHT22;20121;51.910;8.406;2024-03-08T13:44:12;10.10;99.90
33815;DHT22;20121;51.910;8.406;2024-03-08T13:46:37;10.20;94.40
33815;DHT22;20121;51.910;8.406;2024-03-08T13:49:05;10.20;99.90
33815;DHT22;20121;51.910;8.406;2024-03-08T13:51:33;10.30;94.60
33815;DHT22;20121;51.910;8.406;2024-03-08T13:53:59;10.60;99.90
33815;DHT22;20121;51.910;8.406;2024-03-08T13:56:26;10.10;99.90
33815;DHT22;20121;51.910;8.406;2024-03-08T13:58:52;10.20;94.40
33815;DHT22;20121;51.910;8.406;2024-03-08T14:01:17;10.20;94.80
33815;DHT22;20121;51.910;8.406;2024-03-08T14:03:43;10.20;94.20
33815;DHT22;20121;51.910;8.406;2024-03-08T14:06:09;9.80;99.90
33815;DHT22;20121;51.910;8.406;2024-03-08T14:08:36;10.20;99.90
33815;DHT22;20121;51.910;8.406;2024-03-08T14:11:05;10.10;99.90
33815;DHT22;20121;51.910;8.406;2024-03-08T14:13:44;10.20;94.80
33815;DHT22;20121;51.910;8.406;2024-03-08T14:16:13;10.20;94.60
33815;DHT22;20121;51.910;8.406;2024-03-08T14:18:39;10.20;94.30
33815;DHT22;20121;51.910;8.406;2024-03-08T14:21:05;9.80;99.90
33815;DHT22;20121;51.910;8.406;2024-03-08T14:23:30;10.10;94.70
33815;DHT22;20121;51.910;8.406;2024-03-08T14:25:58;10.20;99.90
33815;DHT22;20121;51.910;8.406;2024-03-08T14:28:25;9.70;99.90
33815;DHT22;20121;51.910;8.406;2024-03-08T14:30:52;10.00;94.50
33815;DHT22;20121;51.910;8.406;2024-03-08T14:33:18;10.40;99.90
33815;DHT22;20121;51.910;8.406;2024-03-08T14:35:44;10.00;95.60
33815;DHT22;20121;51.910;8.406;2024-03-08T14:40:38;10.20;99.90
33815;DHT22;20121;51.910;8.406;2024-03-08T14:43:04;9.80;99.90
33815;DHT22;20121;51.910;8.406;2024-03-08T14:45:30;9.90;95.30
33815;DHT22;20121;51.910;8.406;2024-03-08T14:47:56;9.90;95.50
33815;DHT22;20121;51.910;8.406;2024-03-08T14:50:23;9.80;95.80
33815;DHT22;20121;51.910;8.406;2024-03-08T14:52:50;9.80;96.20
33815;DHT22;20121;51.910;8.406;2024-03-08T14:55:19;9.90;96.30
33815;DHT22;20121;51.910;8.406;2024-03-08T14:57:50;9.90;96.20
33815;DHT22;20121;51.910;8.406;2024-03-08T15:00:20;9.90;96.10
33815;DHT22;20121;51.910;8.406;2024-03-08T15:02:55;9.90;96.30
33815;DHT22;20121;51.910;8.406;2024-03-08T15:05:22;9.80;96.20
33815;DHT22;20121;51.910;8.406;2024-03-08T15:07:55;9.80;96.30
33815;DHT22;20121;51.910;8.406;2024-03-08T15:10:20;9.70;96.30
33815;DHT22;20121;51.910;8.406;2024-03-08T15:12:50;9.80;96.80
33815;DHT22;20121;51.910;8.406;2024-03-08T15:15:18;9.80;96.40
33815;DHT22;20121;51.910;8.406;2024-03-08T15:17:44;9.70;96.10
33815;DHT22;20121;51.910;8.406;2024-03-08T15:20:12;10.10;99.90
33815;DHT22;20121;51.910;8.406;2024-03-08T15:22:54;9.50;99.90
33815;DHT22;20121;51.910;8.406;2024-03-08T15:25:24;9.70;96.50
33815;DHT22;20121;51.910;8.406;2024-03-08T15:27:53;9.70;97.10
33815;DHT22;20121;51.910;8.406;2024-03-08T15:30:19;9.60;96.80
33815;DHT22;20121;51.910;8.406;2024-03-08T15:32:48;9.70;97.10
33815;DHT22;20121;51.910;8.406;2024-03-08T15:35:16;9.70;96.80
33815;DHT22;20121;51.910;8.406;2024-03-08T15:37:43;9.60;99.90
33815;DHT22;20121;51.910;8.406;2024-03-08T15:40:11;9.80;99.90
33815;DHT22;20121;51.910;8.406;2024-03-08T15:42:55;9.60;96.70
33815;DHT22;20121;51.910;8.406;2024-03-08T15:45:21;9.70;96.50
33815;DHT22;20121;51.910;8.406;2024-03-08T15:47:49;9.60;96.30
33815;DHT22;20121;51.910;8.406;2024-03-08T15:50:15;9.50;96.50
33815;DHT22;20121;51.910;8.406;2024-03-08T15:52:44;9.50;96.60
33815;DHT22;20121;51.910;8.406;2024-03-08T15:55:17;9.50;96.80
33815;DHT22;20121;51.910;8.406;2024-03-08T15:57:48;9.50;96.70
33815;DHT22;20121;51.910;8.406;2024-03-08T16:00:15;9.50;96.70
33815;DHT22;20121;51.910;8.406;2024-03-08T16:02:44;9.40;99.90
33815;DHT22;20121;51.910;8.406;2024-03-08T16:05:10;9.50;96.80
33815;DHT22;20121;51.910;8.406;2024-03-08T16:07:38;9.50;96.90
33815;DHT22;20121;51.910;8.406;2024-03-08T16:10:04;9.50;96.80
33815;DHT22;20121;51.910;8.406;2024-03-08T16:12:37;9.50;96.90